SCFI weather

Fundo Tehuén Airport
Frutillar, Los Lagos Region, Chile

Public forecast

Using degrees Celsius for public forecast. Weather courtesy of forecast.io.

METAR (pilot weather report)

Closest report is El Tepual Airport, 20.7 nm (38.3 km) S. Retrieved 2019/06/19 09:00 UTC (11 minutes ago):

SCTE 190900Z 02007KT 9999 SCT015 OVC030 09/08 Q1022 NOSIG

TAF (pilot weather forecast)

Closest forecast is El Tepual Airport, 20.7 nm (38.3 km) S. Retrieved 2019/06/19 06:00 UTC (3 hours ago):

TAF SCTE 190428Z 1906/2006 VRB03KT 4000 BR BKN020 TN06/1910Z TX12/1919Z BECMG 1914/1916 9999 NSW BECMG 1916/1918 01010KT SCT030 BECMG 1920/1922 07005KT CAVOK BECMG 2001/2003 VRB02KT FEW040